createdAt,value
2019-05-11T00:00:29.190Z,7.55
2019-05-11T00:03:00.230Z,7.45
2019-05-11T00:05:32.320Z,7.33
2019-05-11T00:08:03.311Z,7.53
2019-05-11T00:10:35.333Z,7.90
2019-05-11T00:13:07.872Z,7.75
2019-05-11T00:15:38.778Z,7.78
2019-05-11T00:18:09.667Z,7.83
2019-05-11T00:20:40.494Z,7.90
2019-05-11T00:23:11.477Z,7.80
2019-05-11T00:25:42.340Z,6.60
2019-05-11T00:28:13.349Z,7.10
2019-05-11T00:30:44.325Z,6.78
2019-05-11T00:33:15.153Z,6.50
2019-05-11T00:35:46.115Z,6.50
2019-05-11T00:38:17.034Z,6.90
2019-05-11T00:40:48.192Z,6.83
2019-05-11T00:43:19.057Z,7.03
2019-05-11T00:45:49.942Z,7.10
2019-05-11T00:48:20.795Z,6.92
2019-05-11T00:50:51.731Z,6.12
2019-05-11T00:53:23.094Z,6.70
2019-05-11T00:55:54.076Z,7.05
2019-05-11T00:58:24.936Z,6.50
2019-05-11T01:00:55.913Z,6.65
2019-05-11T01:03:27.005Z,6.20
2019-05-11T01:05:57.881Z,5.97
2019-05-11T01:08:28.730Z,5.92
2019-05-11T01:10:59.662Z,6.37
2019-05-11T01:13:30.666Z,6.22
2019-05-11T01:16:02.789Z,5.87
2019-05-11T01:18:33.677Z,6.08
2019-05-11T01:21:04.694Z,6.17
2019-05-11T01:23:35.568Z,6.33
2019-05-11T01:26:06.561Z,6.00
2019-05-11T01:28:37.505Z,6.28
2019-05-11T01:31:08.693Z,6.55
2019-05-11T01:33:39.804Z,6.35
2019-05-11T01:36:10.633Z,5.90
2019-05-11T01:38:41.470Z,6.25
2019-05-11T01:41:12.294Z,6.22
2019-05-11T01:43:43.113Z,6.70
2019-05-11T01:46:13.966Z,5.75
2019-05-11T01:48:44.809Z,6.50
2019-05-11T01:51:15.685Z,6.10
2019-05-11T01:53:48.136Z,6.58
2019-05-11T01:56:19.171Z,6.45
2019-05-11T01:58:50.012Z,6.33
2019-05-11T02:01:20.897Z,6.37
2019-05-11T02:03:51.732Z,5.95
2019-05-11T02:06:22.580Z,6.60
2019-05-11T02:08:53.621Z,6.25
2019-05-11T02:11:25.494Z,7.08
2019-05-11T02:13:56.332Z,6.50
2019-05-11T02:16:27.440Z,6.75
2019-05-11T02:18:58.403Z,6.42
2019-05-11T02:21:29.289Z,6.67
2019-05-11T02:24:00.120Z,6.15
2019-05-11T02:26:30.960Z,6.12
2019-05-11T02:29:01.768Z,7.17
2019-05-11T02:31:32.605Z,6.67
2019-05-11T02:34:03.455Z,6.12
2019-05-11T02:36:34.942Z,5.58
2019-05-11T02:39:07.999Z,5.80
2019-05-11T02:41:38.829Z,6.30
2019-05-11T02:44:09.657Z,6.10
2019-05-11T02:46:40.509Z,6.47
2019-05-11T02:49:11.338Z,6.65
2019-05-11T02:51:42.800Z,6.42
2019-05-11T02:54:13.926Z,6.60
2019-05-11T02:56:44.813Z,6.50
2019-05-11T02:59:15.816Z,5.95
2019-05-11T03:01:46.701Z,6.05
2019-05-11T03:04:17.601Z,6.72
2019-05-11T03:06:49.495Z,7.30
2019-05-11T03:09:20.410Z,6.97
2019-05-11T03:11:55.898Z,6.15
2019-05-11T03:14:24.967Z,6.42
2019-05-11T03:17:12.150Z,6.45
2019-05-11T03:19:43.021Z,7.03
2019-05-11T03:22:14.054Z,6.70
2019-05-11T03:24:45.010Z,6.95
2019-05-11T03:27:15.909Z,7.20
2019-05-11T03:29:46.880Z,6.83
2019-05-11T03:32:17.822Z,7.45
2019-05-11T03:34:48.617Z,7.75
2019-05-11T03:37:20.011Z,7.55
2019-05-11T03:39:51.851Z,7.10
2019-05-11T03:42:22.737Z,6.95
2019-05-11T03:44:53.583Z,7.25
2019-05-11T03:47:24.468Z,7.15
2019-05-11T03:49:55.326Z,7.65
2019-05-11T03:52:26.246Z,7.72
2019-05-11T03:54:57.086Z,6.65
2019-05-11T03:57:27.969Z,6.55
2019-05-11T03:59:58.800Z,7.40
2019-05-11T04:02:29.685Z,7.08
2019-05-11T04:05:00.539Z,7.03
2019-05-11T04:07:32.442Z,7.05
2019-05-11T04:10:05.376Z,6.95
2019-05-11T04:12:36.343Z,6.87
2019-05-11T04:15:07.469Z,6.90
2019-05-11T04:17:38.400Z,6.95
2019-05-11T04:20:09.849Z,6.95
2019-05-11T04:22:40.779Z,6.40
2019-05-11T04:25:12.875Z,6.17
2019-05-11T04:27:43.761Z,6.85
2019-05-11T04:30:14.627Z,6.15
2019-05-11T04:32:45.565Z,6.10
2019-05-11T04:35:16.413Z,6.67
2019-05-11T04:37:47.521Z,6.80
2019-05-11T04:40:18.733Z,6.65
2019-05-11T04:42:55.077Z,6.45
2019-05-11T04:45:22.131Z,6.15
2019-05-11T04:47:53.015Z,7.10
2019-05-11T04:50:23.915Z,6.53
2019-05-11T04:52:55.006Z,6.53
2019-05-11T04:55:25.901Z,7.25
2019-05-11T04:57:56.984Z,7.08
2019-05-11T05:00:29.690Z,6.75
2019-05-11T05:03:00.565Z,6.37
2019-05-11T05:05:31.411Z,6.53
2019-05-11T05:08:09.691Z,6.78
2019-05-11T05:10:34.706Z,7.20
2019-05-11T05:13:10.728Z,6.70
2019-05-11T05:15:38.227Z,6.22
2019-05-11T05:18:09.076Z,6.65
2019-05-11T05:20:43.530Z,7.15
2019-05-11T05:23:12.488Z,7.08
2019-05-11T05:25:42.608Z,6.90
2019-05-11T05:28:12.696Z,6.83
2019-05-11T05:30:43.508Z,6.65
2019-05-11T05:33:13.665Z,6.62
2019-05-11T05:35:43.708Z,6.62
2019-05-11T05:38:13.752Z,6.92
2019-05-11T05:40:44.491Z,6.40
2019-05-11T05:43:26.093Z,6.70
2019-05-11T05:45:46.327Z,6.62
2019-05-11T05:48:16.477Z,7.33
2019-05-11T05:50:46.488Z,6.83
2019-05-11T05:53:16.596Z,6.87
2019-05-11T05:55:46.604Z,7.10
2019-05-11T05:58:16.642Z,6.75
2019-05-11T06:00:46.619Z,6.58
2019-05-11T06:03:16.626Z,6.67
2019-05-11T06:05:46.665Z,8.38
2019-05-11T06:08:16.737Z,7.28
2019-05-11T06:10:46.785Z,7.55
2019-05-11T06:13:16.796Z,6.85
2019-05-11T06:15:46.985Z,7.45
2019-05-11T06:18:17.084Z,6.50
2019-05-11T06:20:47.152Z,7.40
2019-05-11T06:23:17.210Z,7.22
2019-05-11T06:25:47.248Z,6.37
2019-05-11T06:28:17.324Z,6.45
2019-05-11T06:30:47.364Z,6.97
2019-05-11T06:33:17.490Z,7.15
2019-05-11T06:35:47.502Z,7.33
2019-05-11T06:38:17.511Z,7.12
2019-05-11T06:40:47.511Z,7.45
2019-05-11T06:43:17.540Z,8.30
2019-05-11T06:45:47.562Z,7.92
2019-05-11T06:48:17.608Z,8.38
2019-05-11T06:50:47.588Z,8.08
2019-05-11T06:53:17.616Z,7.78
2019-05-11T06:55:47.686Z,7.90
2019-05-11T06:58:17.719Z,7.72
2019-05-11T07:00:47.754Z,8.38
2019-05-11T07:03:17.783Z,7.90
2019-05-11T07:05:48.524Z,8.80
2019-05-11T07:08:18.640Z,7.10
2019-05-11T07:10:49.106Z,7.65
2019-05-11T07:13:19.400Z,7.28
2019-05-11T07:15:50.634Z,7.10
2019-05-11T07:18:21.884Z,7.53
2019-05-11T07:20:53.148Z,6.83
2019-05-11T07:23:24.178Z,7.00
2019-05-11T07:25:55.310Z,6.12
2019-05-11T07:28:26.456Z,6.67
2019-05-11T07:30:57.765Z,6.22
2019-05-11T07:33:28.953Z,6.70
2019-05-11T07:36:01.227Z,7.05
2019-05-11T07:38:32.368Z,6.33
2019-05-11T07:41:04.959Z,6.10
2019-05-11T07:43:38.002Z,6.30
2019-05-11T07:46:08.742Z,5.97
2019-05-11T07:48:39.861Z,6.22
2019-05-11T07:51:10.002Z,5.58
2019-05-11T07:53:41.181Z,5.80
2019-05-11T07:56:11.559Z,5.60
2019-05-11T07:58:41.964Z,5.72
2019-05-11T08:01:12.220Z,4.67
2019-05-11T08:03:42.530Z,4.87
2019-05-11T08:06:12.910Z,5.42
2019-05-11T08:08:44.024Z,5.62
2019-05-11T08:11:14.907Z,4.85
2019-05-11T08:13:48.138Z,4.90
2019-05-11T08:16:18.960Z,4.60
2019-05-11T08:18:50.196Z,4.75
2019-05-11T08:21:21.149Z,5.17
2019-05-11T08:23:52.349Z,4.50
2019-05-11T08:26:24.563Z,4.67
2019-05-11T08:28:57.887Z,4.47
2019-05-11T08:31:28.336Z,4.67
2019-05-11T08:33:59.586Z,4.72
2019-05-11T08:36:30.749Z,4.53
2019-05-11T08:39:02.073Z,4.87
2019-05-11T08:41:33.651Z,4.50
2019-05-11T08:44:05.025Z,4.45
2019-05-11T08:46:38.362Z,4.45
2019-05-11T08:49:09.156Z,4.40
2019-05-11T08:51:40.445Z,4.47
2019-05-11T08:54:11.281Z,4.97
2019-05-11T08:56:42.455Z,4.42
2019-05-11T08:59:13.575Z,4.35
2019-05-11T09:01:44.882Z,4.62
2019-05-11T09:04:18.162Z,4.37
2019-05-11T09:06:48.852Z,4.75
2019-05-11T09:09:20.018Z,4.72
2019-05-11T09:11:51.190Z,4.62
2019-05-11T09:14:22.408Z,4.78
2019-05-11T09:16:54.986Z,4.75
2019-05-11T09:19:28.237Z,4.65
2019-05-11T09:21:59.071Z,4.97
2019-05-11T09:24:30.245Z,5.08
2019-05-11T09:27:01.677Z,5.08
2019-05-11T09:29:33.066Z,5.20
2019-05-11T09:32:04.355Z,4.97
2019-05-11T09:34:37.659Z,4.97
2019-05-11T09:37:08.102Z,4.65
2019-05-11T09:39:39.286Z,5.55
2019-05-11T09:42:10.349Z,5.45
2019-05-11T09:44:41.472Z,5.47
2019-05-11T09:47:12.825Z,5.85
2019-05-11T09:49:48.044Z,5.35
2019-05-11T09:52:18.359Z,5.83
2019-05-11T09:54:49.753Z,5.75
2019-05-11T09:57:20.910Z,5.50
2019-05-11T09:59:53.256Z,6.15
2019-05-11T10:02:24.391Z,5.53
2019-05-11T10:04:57.673Z,5.35
2019-05-11T10:07:28.635Z,6.33
2019-05-11T10:09:59.517Z,9.40
2019-05-11T10:12:29.568Z,14.07
2019-05-11T10:14:59.601Z,18.20
2019-05-11T10:17:29.604Z,14.87
2019-05-11T10:20:01.102Z,13.53
2019-05-11T10:22:31.141Z,12.07
2019-05-11T10:25:01.234Z,11.75
2019-05-11T10:27:31.296Z,12.10
2019-05-11T10:30:01.333Z,12.95
2019-05-11T10:32:31.460Z,9.73
2019-05-11T10:35:01.521Z,9.35
2019-05-11T10:37:31.508Z,8.55
2019-05-11T10:40:01.528Z,8.48
2019-05-11T10:42:32.524Z,8.28
2019-05-11T10:45:02.570Z,8.75
2019-05-11T10:47:32.582Z,8.95
2019-05-11T10:50:02.616Z,10.75
2019-05-11T10:52:32.624Z,10.30
2019-05-11T10:55:02.632Z,10.35
2019-05-11T10:57:32.728Z,10.20
2019-05-11T11:00:02.785Z,11.78
2019-05-11T11:02:32.909Z,11.88
2019-05-11T11:05:02.933Z,10.70
2019-05-11T11:07:32.951Z,10.58
2019-05-11T11:10:02.963Z,9.68
2019-05-11T11:12:32.973Z,9.90
2019-05-11T11:15:03.041Z,11.33
2019-05-11T11:17:33.040Z,10.63
2019-05-11T11:20:03.182Z,10.48
2019-05-11T11:22:39.854Z,11.10
2019-05-11T11:25:05.073Z,11.15
2019-05-11T11:27:35.150Z,11.85
2019-05-11T11:30:05.719Z,10.45
2019-05-11T11:32:38.137Z,9.78
2019-05-11T11:35:08.441Z,10.80
2019-05-11T11:37:39.263Z,10.55
2019-05-11T11:40:09.605Z,12.33
2019-05-11T11:42:40.401Z,12.05
2019-05-11T11:45:10.772Z,12.45
2019-05-11T11:47:40.912Z,11.75
2019-05-11T11:50:11.060Z,12.85
2019-05-11T11:52:45.010Z,14.73
2019-05-11T11:55:13.525Z,14.95
2019-05-11T11:57:43.608Z,15.05
2019-05-11T12:00:14.106Z,18.27
2019-05-11T12:02:44.130Z,24.55
2019-05-11T12:05:14.364Z,23.62
2019-05-11T12:07:44.547Z,26.50
2019-05-11T12:10:14.753Z,23.70
2019-05-11T12:12:44.884Z,23.83
2019-05-11T12:15:15.024Z,21.25
2019-05-11T12:17:45.094Z,21.52
2019-05-11T12:20:15.192Z,26.77
2019-05-11T12:22:47.483Z,29.92
2019-05-11T12:25:18.572Z,28.73
2019-05-11T12:27:49.241Z,29.90
2019-05-11T12:30:20.628Z,27.40
2019-05-11T12:32:50.675Z,27.75
2019-05-11T12:35:21.220Z,25.30
2019-05-11T12:37:51.304Z,29.15
2019-05-11T12:40:21.493Z,30.02
2019-05-11T12:42:51.577Z,26.30
2019-05-11T12:45:21.728Z,26.95
2019-05-11T12:47:52.365Z,24.00
2019-05-11T12:50:22.503Z,22.98
2019-05-11T12:52:52.667Z,19.92
2019-05-11T12:55:23.830Z,23.00
2019-05-11T12:57:53.912Z,19.73
2019-05-11T13:00:27.931Z,16.30
2019-05-11T13:02:58.545Z,13.75
2019-05-11T13:05:30.250Z,11.75
2019-05-11T13:08:00.348Z,10.95
2019-05-11T13:10:30.419Z,11.00
2019-05-11T13:13:02.681Z,12.10
2019-05-11T13:15:32.144Z,12.70
2019-05-11T13:18:02.220Z,15.13
2019-05-11T13:20:33.770Z,15.83
2019-05-11T13:23:03.790Z,17.07
2019-05-11T13:25:33.864Z,16.20
2019-05-11T13:28:04.033Z,15.20
2019-05-11T13:30:34.096Z,17.20
2019-05-11T13:33:04.148Z,18.55
2019-05-11T13:35:34.262Z,18.73
2019-05-11T13:38:04.429Z,19.62
2019-05-11T13:40:38.040Z,17.82
2019-05-11T13:43:08.316Z,16.77
2019-05-11T13:45:38.835Z,17.52
2019-05-11T13:48:10.026Z,15.60
2019-05-11T13:50:40.094Z,17.07
2019-05-11T13:53:10.473Z,19.77
2019-05-11T13:55:40.507Z,20.90
2019-05-11T13:58:10.511Z,23.10
2019-05-11T14:00:40.705Z,20.62
2019-05-11T14:03:10.808Z,18.55
2019-05-11T14:05:40.923Z,16.20
2019-05-11T14:08:10.928Z,14.60
2019-05-11T14:10:40.935Z,16.42
2019-05-11T14:13:10.986Z,16.12
2019-05-11T14:15:41.080Z,16.95
2019-05-11T14:18:12.073Z,18.62
2019-05-11T14:20:42.314Z,18.07
2019-05-11T14:23:12.352Z,17.45
2019-05-11T14:25:42.429Z,16.80
2019-05-11T14:28:12.368Z,19.55
2019-05-11T14:30:42.484Z,20.68
2019-05-11T14:33:12.590Z,16.95
2019-05-11T14:35:42.632Z,12.05
2019-05-11T14:38:12.721Z,11.43
2019-05-11T14:40:42.810Z,11.38
2019-05-11T14:43:13.737Z,12.28
2019-05-11T14:45:44.733Z,11.10
2019-05-11T14:48:24.179Z,11.15
2019-05-11T14:50:48.746Z,11.70
2019-05-11T14:53:18.225Z,12.07
2019-05-11T14:55:48.980Z,11.95
2019-05-11T14:58:20.035Z,13.22
2019-05-11T15:00:50.170Z,15.13
2019-05-11T15:03:20.216Z,14.85
2019-05-11T15:05:50.253Z,15.70
2019-05-11T15:08:20.268Z,17.07
2019-05-11T15:10:50.365Z,21.62
2019-05-11T15:13:20.404Z,22.13
2019-05-11T15:15:50.452Z,24.98
2019-05-11T15:18:20.452Z,31.48
2019-05-11T15:20:50.457Z,40.45
2019-05-11T15:23:20.452Z,40.80
2019-05-11T15:25:50.589Z,41.77
2019-05-11T15:28:20.619Z,41.20
2019-05-11T15:30:50.628Z,41.18
2019-05-11T15:33:20.655Z,41.63
2019-05-11T15:35:50.708Z,39.33
2019-05-11T15:38:20.734Z,36.13
2019-05-11T15:40:50.781Z,34.95
2019-05-11T15:43:20.834Z,34.27
2019-05-11T15:45:51.002Z,33.15
2019-05-11T15:48:21.012Z,31.35
2019-05-11T15:50:51.737Z,31.87
2019-05-11T15:53:21.895Z,32.65
2019-05-11T15:55:51.918Z,35.08
2019-05-11T15:58:22.051Z,40.50
2019-05-11T16:00:52.048Z,42.83
2019-05-11T16:03:22.056Z,42.90
2019-05-11T16:05:52.093Z,46.30
2019-05-11T16:08:22.112Z,43.05
2019-05-11T16:10:52.142Z,38.28
2019-05-11T16:13:22.442Z,28.92
2019-05-11T16:15:54.017Z,21.77
2019-05-11T16:18:24.058Z,18.30
2019-05-11T16:20:54.068Z,15.63
2019-05-11T16:23:24.096Z,15.32
2019-05-11T16:25:54.882Z,15.50
2019-05-11T16:28:47.891Z,15.95
2019-05-11T16:31:09.453Z,16.32
2019-05-11T16:33:41.304Z,15.65
2019-05-11T16:36:12.191Z,15.43
2019-05-11T16:38:43.089Z,15.85
2019-05-11T16:41:14.028Z,16.05
2019-05-11T16:43:44.948Z,15.98
2019-05-11T16:46:17.626Z,15.43
2019-05-11T16:48:48.603Z,16.25
2019-05-11T16:51:20.916Z,16.82
2019-05-11T16:53:51.796Z,17.95
2019-05-11T16:56:22.706Z,18.50
2019-05-11T16:58:54.703Z,17.15
2019-05-11T17:01:25.140Z,17.65
2019-05-11T17:03:57.680Z,16.80
2019-05-11T17:06:28.557Z,17.12
2019-05-11T17:09:00.064Z,18.65
2019-05-11T17:11:31.037Z,19.25
2019-05-11T17:14:01.897Z,19.60
2019-05-11T17:16:32.769Z,19.62
2019-05-11T17:19:03.617Z,21.02
2019-05-11T17:21:34.489Z,21.77
2019-05-11T17:24:04.604Z,23.00
2019-05-11T17:26:34.652Z,23.38
2019-05-11T17:29:04.644Z,22.98
2019-05-11T17:31:37.605Z,22.85
2019-05-11T17:34:09.026Z,23.42
2019-05-11T17:36:40.120Z,23.50
2019-05-11T17:39:10.945Z,23.62
2019-05-11T17:41:41.800Z,24.65
2019-05-11T17:44:12.629Z,22.30
2019-05-11T17:46:42.774Z,21.10
2019-05-11T17:49:13.506Z,20.05
2019-05-11T17:51:43.618Z,19.70
2019-05-11T17:54:14.388Z,20.37
2019-05-11T17:56:44.522Z,19.65
2019-05-11T17:59:15.257Z,19.70
2019-05-11T18:01:46.196Z,20.17
2019-05-11T18:04:18.453Z,19.62
2019-05-11T18:06:49.471Z,18.67
2019-05-11T18:09:20.363Z,18.35
2019-05-11T18:11:51.209Z,18.82
2019-05-11T18:14:22.068Z,19.27
2019-05-11T18:16:52.967Z,18.20
2019-05-11T18:19:23.901Z,19.02
2019-05-11T18:21:54.032Z,17.95
2019-05-11T18:24:24.781Z,18.77
2019-05-11T18:26:55.651Z,16.07
2019-05-11T18:29:28.628Z,18.37
2019-05-11T18:32:00.469Z,18.00
2019-05-11T18:34:31.309Z,18.25
2019-05-11T18:37:02.179Z,17.62
2019-05-11T18:39:32.289Z,16.42
2019-05-11T18:42:03.094Z,16.57
2019-05-11T18:44:33.976Z,17.07
2019-05-11T18:47:04.879Z,17.07
2019-05-11T18:49:37.580Z,16.82
2019-05-11T18:52:08.438Z,16.27
2019-05-11T18:54:39.421Z,17.50
2019-05-11T18:57:10.398Z,16.30
2019-05-11T18:59:41.309Z,16.05
2019-05-11T19:02:13.192Z,16.10
2019-05-11T19:04:43.305Z,16.95
2019-05-11T19:07:17.135Z,16.55
2019-05-11T19:09:48.487Z,16.00
2019-05-11T19:12:19.296Z,16.95
2019-05-11T19:14:50.145Z,15.95
2019-05-11T19:17:21.056Z,16.40
2019-05-11T19:19:51.941Z,15.72
2019-05-11T19:22:22.852Z,16.45
2019-05-11T19:24:55.006Z,16.20
2019-05-11T19:27:25.879Z,15.65
2019-05-11T19:29:56.804Z,15.00
2019-05-11T19:32:28.278Z,16.82
2019-05-11T19:34:59.302Z,17.82
2019-05-11T19:37:31.184Z,23.12
2019-05-11T19:40:02.170Z,17.10
2019-05-11T19:42:54.626Z,17.87
2019-05-11T19:45:28.563Z,16.62
2019-05-11T19:47:58.689Z,16.70
2019-05-11T19:50:29.562Z,17.50
2019-05-11T19:53:00.414Z,17.95
2019-05-11T19:55:31.285Z,18.60
2019-05-11T19:58:02.211Z,19.15
2019-05-11T20:00:32.330Z,19.27
2019-05-11T20:03:02.327Z,17.27
2019-05-11T20:05:33.164Z,17.42
2019-05-11T20:08:03.330Z,17.98
2019-05-11T20:10:34.992Z,17.55
2019-05-11T20:13:05.097Z,17.32
2019-05-11T20:15:35.195Z,17.65
2019-05-11T20:18:08.001Z,19.80
2019-05-11T20:20:38.272Z,18.15
2019-05-11T20:23:09.042Z,16.77
2019-05-11T20:25:39.859Z,17.48
2019-05-11T20:28:10.014Z,17.90
2019-05-11T20:30:40.020Z,19.50
2019-05-11T20:33:10.979Z,19.35
2019-05-11T20:35:41.073Z,18.92
2019-05-11T20:38:11.102Z,19.32
2019-05-11T20:40:41.107Z,21.10
2019-05-11T20:43:11.117Z,20.82
2019-05-11T20:45:41.858Z,21.10
2019-05-11T20:48:12.813Z,21.87
2019-05-11T20:50:43.649Z,20.17
2019-05-11T20:53:14.675Z,20.05
2019-05-11T20:55:47.626Z,20.55
2019-05-11T20:58:18.807Z,22.45
2019-05-11T21:00:51.020Z,20.62
2019-05-11T21:03:22.352Z,22.13
2019-05-11T21:05:53.239Z,21.55
2019-05-11T21:08:24.140Z,22.93
2019-05-11T21:10:54.300Z,20.90
2019-05-11T21:13:25.109Z,21.87
2019-05-11T21:15:56.035Z,23.38
2019-05-11T21:18:28.782Z,22.70
2019-05-11T21:20:59.375Z,22.40
2019-05-11T21:23:30.270Z,26.23
2019-05-11T21:26:01.132Z,28.15
2019-05-11T21:28:32.026Z,25.45
2019-05-11T21:31:02.983Z,25.72
2019-05-11T21:33:33.457Z,23.25
2019-05-11T21:36:04.670Z,27.13
2019-05-11T21:38:35.636Z,25.75
2019-05-11T21:41:08.622Z,25.62
2019-05-11T21:43:39.097Z,25.62
2019-05-11T21:46:10.333Z,26.15
2019-05-11T21:48:41.240Z,26.12
2019-05-11T21:51:11.348Z,25.82
2019-05-11T21:53:42.112Z,25.72
2019-05-11T21:56:12.959Z,26.37
2019-05-11T21:58:43.147Z,24.95
2019-05-11T22:01:14.229Z,25.10
2019-05-11T22:03:47.728Z,25.27
2019-05-11T22:06:17.523Z,25.92
2019-05-11T22:08:50.769Z,27.15
2019-05-11T22:11:20.846Z,25.02
2019-05-11T22:13:51.003Z,25.88
2019-05-11T22:16:21.068Z,26.35
2019-05-11T22:18:51.509Z,26.95
2019-05-11T22:21:21.953Z,24.87
2019-05-11T22:23:53.187Z,25.88
2019-05-11T22:26:23.278Z,25.60
2019-05-11T22:28:53.475Z,23.83
2019-05-11T22:31:23.571Z,25.10
2019-05-11T22:33:53.605Z,23.35
2019-05-11T22:36:23.625Z,24.95
2019-05-11T22:38:55.125Z,23.30
2019-05-11T22:41:25.466Z,23.90
2019-05-11T22:43:55.477Z,22.20
2019-05-11T22:46:27.895Z,22.42
2019-05-11T22:48:58.262Z,23.35
2019-05-11T22:51:29.136Z,22.27
2019-05-11T22:53:59.978Z,22.07
2019-05-11T22:56:30.061Z,22.52
2019-05-11T22:59:00.847Z,22.27
2019-05-11T23:01:30.959Z,22.35
2019-05-11T23:04:01.000Z,23.45
2019-05-11T23:06:31.790Z,22.22
2019-05-11T23:09:02.738Z,22.67
2019-05-11T23:11:33.163Z,22.77
2019-05-11T23:14:04.387Z,22.77
2019-05-11T23:16:34.493Z,23.35
2019-05-11T23:19:04.756Z,23.60
2019-05-11T23:21:35.888Z,23.00
2019-05-11T23:24:07.655Z,22.93
2019-05-11T23:26:39.936Z,22.52
2019-05-11T23:29:11.094Z,22.55
2019-05-11T23:31:41.957Z,21.55
2019-05-11T23:34:12.449Z,21.75
2019-05-11T23:36:42.740Z,21.75
2019-05-11T23:39:12.985Z,23.00
2019-05-11T23:41:43.417Z,21.33
2019-05-11T23:44:13.719Z,20.90
2019-05-11T23:46:44.174Z,20.80
2019-05-11T23:49:14.707Z,19.37
2019-05-11T23:51:45.007Z,18.90
2019-05-11T23:54:15.534Z,18.92
2019-05-11T23:56:47.827Z,17.80
2019-05-11T23:59:18.787Z,18.17
